sensor_id;sensor_type;location;lat;lon;timestamp;pressure;altitude;pressure_sealevel;temperature;humidity
65659;BME280;60181;53.258;6.932;2023-04-03T00:01:31;103422.89;;;14.29;56.11
65659;BME280;60181;53.258;6.932;2023-04-03T00:05:35;103422.09;;;14.28;56.08
65659;BME280;60181;53.258;6.932;2023-04-03T00:09:39;103421.58;;;14.28;56.03
65659;BME280;60181;53.258;6.932;2023-04-03T00:13:43;103421.19;;;14.27;56.10
65659;BME280;60181;53.258;6.932;2023-04-03T00:17:47;103422.83;;;14.26;56.09
65659;BME280;60181;53.258;6.932;2023-04-03T00:21:51;103424.01;;;14.26;56.05
65659;BME280;60181;53.258;6.932;2023-04-03T00:25:55;103424.79;;;14.25;56.02
65659;BME280;60181;53.258;6.932;2023-04-03T00:29:59;103425.20;;;14.25;56.06
65659;BME280;60181;53.258;6.932;2023-04-03T00:34:03;103426.22;;;14.24;56.02
65659;BME280;60181;53.258;6.932;2023-04-03T00:38:08;103426.56;;;14.23;56.16
65659;BME280;60181;53.258;6.932;2023-04-03T00:42:11;103427.21;;;14.22;56.01
65659;BME280;60181;53.258;6.932;2023-04-03T00:46:15;103428.89;;;14.21;56.10
65659;BME280;60181;53.258;6.932;2023-04-03T00:50:19;103430.57;;;14.21;56.06
65659;BME280;60181;53.258;6.932;2023-04-03T00:54:23;103432.36;;;14.20;56.15
65659;BME280;60181;53.258;6.932;2023-04-03T00:58:34;103435.11;;;14.19;56.18
65659;BME280;60181;53.258;6.932;2023-04-03T01:02:31;103436.78;;;14.18;56.14
65659;BME280;60181;53.258;6.932;2023-04-03T01:06:37;103439.70;;;14.17;56.14
65659;BME280;60181;53.258;6.932;2023-04-03T01:10:39;103442.49;;;14.17;56.10
65659;BME280;60181;53.258;6.932;2023-04-03T01:14:44;103443.99;;;14.16;56.10
65659;BME280;60181;53.258;6.932;2023-04-03T01:18:47;103447.03;;;14.15;56.18
65659;BME280;60181;53.258;6.932;2023-04-03T01:23:15;103449.85;;;14.15;56.14
65659;BME280;60181;53.258;6.932;2023-04-03T01:26:55;103451.70;;;14.13;56.17
65659;BME280;60181;53.258;6.932;2023-04-03T01:35:03;103454.68;;;14.12;56.15
65659;BME280;60181;53.258;6.932;2023-04-03T01:39:07;103454.80;;;14.11;56.11
65659;BME280;60181;53.258;6.932;2023-04-03T01:43:11;103454.15;;;14.10;56.11
65659;BME280;60181;53.258;6.932;2023-04-03T01:47:15;103454.02;;;14.09;56.16
65659;BME280;60181;53.258;6.932;2023-04-03T01:51:19;103453.26;;;14.09;56.21
65659;BME280;60181;53.258;6.932;2023-04-03T01:55:23;103452.38;;;14.08;56.22
65659;BME280;60181;53.258;6.932;2023-04-03T01:59:27;103451.72;;;14.08;56.13
65659;BME280;60181;53.258;6.932;2023-04-03T02:03:31;103451.10;;;14.07;56.12
65659;BME280;60181;53.258;6.932;2023-04-03T02:07:35;103452.48;;;14.07;56.22
65659;BME280;60181;53.258;6.932;2023-04-03T02:11:39;103454.66;;;14.06;56.17
65659;BME280;60181;53.258;6.932;2023-04-03T02:15:43;103457.28;;;14.05;56.26
65659;BME280;60181;53.258;6.932;2023-04-03T02:19:47;103460.23;;;14.04;56.31
65659;BME280;60181;53.258;6.932;2023-04-03T02:23:51;103463.24;;;14.03;56.23
65659;BME280;60181;53.258;6.932;2023-04-03T02:27:55;103465.52;;;14.03;56.24
65659;BME280;60181;53.258;6.932;2023-04-03T02:31:59;103467.76;;;14.02;56.26
65659;BME280;60181;53.258;6.932;2023-04-03T02:36:04;103470.31;;;14.01;56.26
65659;BME280;60181;53.258;6.932;2023-04-03T02:40:07;103471.50;;;14.01;56.27
65659;BME280;60181;53.258;6.932;2023-04-03T02:44:11;103472.42;;;14.00;56.33
65659;BME280;60181;53.258;6.932;2023-04-03T02:48:15;103473.99;;;13.99;56.24
65659;BME280;60181;53.258;6.932;2023-04-03T02:52:19;103476.27;;;13.99;56.30
65659;BME280;60181;53.258;6.932;2023-04-03T02:56:23;103476.64;;;13.98;56.23
65659;BME280;60181;53.258;6.932;2023-04-03T03:00:27;103479.14;;;13.97;56.34
65659;BME280;60181;53.258;6.932;2023-04-03T03:04:31;103482.53;;;13.96;56.31
65659;BME280;60181;53.258;6.932;2023-04-03T03:08:35;103484.73;;;13.95;56.25
65659;BME280;60181;53.258;6.932;2023-04-03T03:12:39;103486.82;;;13.94;56.20
65659;BME280;60181;53.258;6.932;2023-04-03T03:16:43;103490.84;;;13.94;56.19
65659;BME280;60181;53.258;6.932;2023-04-03T03:20:50;103495.42;;;13.94;56.12
65659;BME280;60181;53.258;6.932;2023-04-03T03:24:51;103499.72;;;13.92;56.14
65659;BME280;60181;53.258;6.932;2023-04-03T03:28:55;103503.11;;;13.91;56.14
65659;BME280;60181;53.258;6.932;2023-04-03T03:32:59;103506.43;;;13.90;56.13
65659;BME280;60181;53.258;6.932;2023-04-03T03:37:03;103509.47;;;13.90;56.15
65659;BME280;60181;53.258;6.932;2023-04-03T03:41:07;103511.73;;;13.89;56.13
65659;BME280;60181;53.258;6.932;2023-04-03T03:45:11;103514.05;;;13.88;56.09
65659;BME280;60181;53.258;6.932;2023-04-03T03:49:15;103516.78;;;13.87;56.13
65659;BME280;60181;53.258;6.932;2023-04-03T03:53:19;103519.10;;;13.86;56.12
65659;BME280;60181;53.258;6.932;2023-04-03T03:57:23;103520.29;;;13.85;56.11
65659;BME280;60181;53.258;6.932;2023-04-03T04:01:27;103521.11;;;13.84;56.12
65659;BME280;60181;53.258;6.932;2023-04-03T04:05:31;103522.71;;;13.84;56.05
65659;BME280;60181;53.258;6.932;2023-04-03T04:09:35;103522.88;;;13.82;56.06
65659;BME280;60181;53.258;6.932;2023-04-03T04:13:39;103523.14;;;13.81;56.05
65659;BME280;60181;53.258;6.932;2023-04-03T04:17:43;103524.00;;;13.81;56.07
65659;BME280;60181;53.258;6.932;2023-04-03T04:21:47;103526.37;;;13.80;56.02
65659;BME280;60181;53.258;6.932;2023-04-03T04:25:51;103529.03;;;13.79;55.99
65659;BME280;60181;53.258;6.932;2023-04-03T04:29:55;103532.31;;;13.79;56.01
65659;BME280;60181;53.258;6.932;2023-04-03T04:33:59;103534.06;;;13.78;56.06
65659;BME280;60181;53.258;6.932;2023-04-03T04:38:03;103534.75;;;13.77;56.10
65659;BME280;60181;53.258;6.932;2023-04-03T04:42:07;103535.75;;;13.75;56.10
65659;BME280;60181;53.258;6.932;2023-04-03T04:46:11;103537.84;;;13.75;56.10
65659;BME280;60181;53.258;6.932;2023-04-03T04:50:15;103538.82;;;13.74;56.13
65659;BME280;60181;53.258;6.932;2023-04-03T04:54:19;103540.75;;;13.74;56.05
65659;BME280;60181;53.258;6.932;2023-04-03T04:58:23;103541.96;;;13.73;56.05
65659;BME280;60181;53.258;6.932;2023-04-03T05:02:27;103544.63;;;13.72;56.13
65659;BME280;60181;53.258;6.932;2023-04-03T05:06:31;103548.89;;;13.72;56.08
65659;BME280;60181;53.258;6.932;2023-04-03T05:10:35;103552.29;;;13.71;56.10
65659;BME280;60181;53.258;6.932;2023-04-03T05:14:39;103555.58;;;13.71;56.05
65659;BME280;60181;53.258;6.932;2023-04-03T05:18:43;103558.83;;;13.70;56.06
65659;BME280;60181;53.258;6.932;2023-04-03T05:22:47;103563.11;;;13.70;55.94
65659;BME280;60181;53.258;6.932;2023-04-03T05:26:51;103564.90;;;13.70;55.95
65659;BME280;60181;53.258;6.932;2023-04-03T05:30:55;103566.09;;;13.69;56.04
65659;BME280;60181;53.258;6.932;2023-04-03T05:34:59;103568.37;;;13.69;55.91
65659;BME280;60181;53.258;6.932;2023-04-03T05:39:03;103570.61;;;13.69;55.91
65659;BME280;60181;53.258;6.932;2023-04-03T05:43:07;103573.00;;;13.69;55.81
65659;BME280;60181;53.258;6.932;2023-04-03T05:47:11;103575.54;;;13.70;55.65
65659;BME280;60181;53.258;6.932;2023-04-03T05:51:16;103577.49;;;13.71;55.62
65659;BME280;60181;53.258;6.932;2023-04-03T05:55:19;103581.24;;;13.73;55.42
65659;BME280;60181;53.258;6.932;2023-04-03T05:59:23;103584.09;;;13.75;55.29
65659;BME280;60181;53.258;6.932;2023-04-03T06:03:27;103586.65;;;13.77;55.27
65659;BME280;60181;53.258;6.932;2023-04-03T06:07:31;103588.77;;;13.78;55.17
65659;BME280;60181;53.258;6.932;2023-04-03T06:11:35;103591.87;;;13.80;55.09
65659;BME280;60181;53.258;6.932;2023-04-03T06:15:39;103595.20;;;13.82;55.10
65659;BME280;60181;53.258;6.932;2023-04-03T06:19:43;103597.89;;;13.83;55.07
65659;BME280;60181;53.258;6.932;2023-04-03T06:23:47;103600.93;;;13.84;54.97
65659;BME280;60181;53.258;6.932;2023-04-03T06:27:51;103603.16;;;13.86;54.94
65659;BME280;60181;53.258;6.932;2023-04-03T06:31:55;103605.09;;;13.89;54.85
65659;BME280;60181;53.258;6.932;2023-04-03T06:35:59;103607.41;;;13.94;54.71
65659;BME280;60181;53.258;6.932;2023-04-03T06:40:03;103610.78;;;13.99;54.72
65659;BME280;60181;53.258;6.932;2023-04-03T06:44:07;103614.31;;;14.05;54.76
65659;BME280;60181;53.258;6.932;2023-04-03T06:48:11;103617.96;;;14.09;54.56
65659;BME280;60181;53.258;6.932;2023-04-03T06:52:15;103621.13;;;14.11;54.71
65659;BME280;60181;53.258;6.932;2023-04-03T06:56:19;103624.32;;;14.12;54.61
65659;BME280;60181;53.258;6.932;2023-04-03T07:00:23;103628.11;;;14.12;54.62
65659;BME280;60181;53.258;6.932;2023-04-03T07:04:27;103631.31;;;14.13;54.61
65659;BME280;60181;53.258;6.932;2023-04-03T07:08:31;103633.94;;;14.15;54.61
65659;BME280;60181;53.258;6.932;2023-04-03T07:12:35;103637.85;;;14.17;54.63
65659;BME280;60181;53.258;6.932;2023-04-03T07:16:39;103642.15;;;14.20;54.71
65659;BME280;60181;53.258;6.932;2023-04-03T07:20:43;103647.00;;;14.24;55.10
65659;BME280;60181;53.258;6.932;2023-04-03T07:24:46;103652.19;;;14.28;54.98
65659;BME280;60181;53.258;6.932;2023-04-03T07:28:50;103657.21;;;14.32;54.70
65659;BME280;60181;53.258;6.932;2023-04-03T07:32:54;103662.29;;;14.36;54.84
65659;BME280;60181;53.258;6.932;2023-04-03T07:36:58;103665.86;;;14.40;54.80
65659;BME280;60181;53.258;6.932;2023-04-03T07:41:03;103668.21;;;14.42;54.95
65659;BME280;60181;53.258;6.932;2023-04-03T07:45:07;103672.05;;;14.44;54.94
65659;BME280;60181;53.258;6.932;2023-04-03T07:49:10;103674.67;;;14.45;54.95
65659;BME280;60181;53.258;6.932;2023-04-03T07:53:15;103676.97;;;14.46;54.98
65659;BME280;60181;53.258;6.932;2023-04-03T07:57:18;103679.64;;;14.48;55.01
65659;BME280;60181;53.258;6.932;2023-04-03T08:01:22;103681.71;;;14.51;54.81
65659;BME280;60181;53.258;6.932;2023-04-03T08:05:26;103683.79;;;14.56;54.52
65659;BME280;60181;53.258;6.932;2023-04-03T08:09:30;103684.74;;;14.62;54.12
65659;BME280;60181;53.258;6.932;2023-04-03T08:13:34;103684.50;;;14.69;53.87
65659;BME280;60181;53.258;6.932;2023-04-03T08:17:38;103683.80;;;14.76;53.63
65659;BME280;60181;53.258;6.932;2023-04-03T08:21:42;103683.36;;;14.83;53.62
65659;BME280;60181;53.258;6.932;2023-04-03T08:25:46;103682.91;;;14.89;53.54
65659;BME280;60181;53.258;6.932;2023-04-03T08:29:50;103681.41;;;14.95;53.52
65659;BME280;60181;53.258;6.932;2023-04-03T08:33:56;103681.13;;;15.00;53.46
65659;BME280;60181;53.258;6.932;2023-04-03T08:37:58;103680.98;;;15.05;53.42
65659;BME280;60181;53.258;6.932;2023-04-03T08:42:05;103682.04;;;15.10;53.38
65659;BME280;60181;53.258;6.932;2023-04-03T08:46:06;103682.46;;;15.14;53.39
65659;BME280;60181;53.258;6.932;2023-04-03T08:50:15;103683.25;;;15.18;53.43
65659;BME280;60181;53.258;6.932;2023-04-03T08:54:19;103682.91;;;15.21;53.45
65659;BME280;60181;53.258;6.932;2023-04-03T08:58:20;103682.50;;;15.24;53.46
65659;BME280;60181;53.258;6.932;2023-04-03T09:02:24;103681.14;;;15.26;53.44
65659;BME280;60181;53.258;6.932;2023-04-03T09:06:49;103679.53;;;15.29;53.41
65659;BME280;60181;53.258;6.932;2023-04-03T09:10:32;103676.83;;;15.31;53.48
65659;BME280;60181;53.258;6.932;2023-04-03T09:18:39;103671.97;;;15.34;53.49
65659;BME280;60181;53.258;6.932;2023-04-03T09:22:43;103669.63;;;15.35;53.49
65659;BME280;60181;53.258;6.932;2023-04-03T09:26:48;103667.70;;;15.36;53.49
65659;BME280;60181;53.258;6.932;2023-04-03T09:30:50;103666.78;;;15.37;53.54
65659;BME280;60181;53.258;6.932;2023-04-03T09:34:56;103665.05;;;15.37;53.60
65659;BME280;60181;53.258;6.932;2023-04-03T09:43:18;103663.28;;;15.38;53.64
65659;BME280;60181;53.258;6.932;2023-04-03T09:47:26;103661.50;;;15.38;53.68
65659;BME280;60181;53.258;6.932;2023-04-03T09:51:10;103660.42;;;15.37;53.70
65659;BME280;60181;53.258;6.932;2023-04-03T09:55:21;103658.75;;;15.37;53.63
65659;BME280;60181;53.258;6.932;2023-04-03T09:59:18;103657.47;;;15.36;53.78
65659;BME280;60181;53.258;6.932;2023-04-03T10:03:30;103656.35;;;15.35;53.80
65659;BME280;60181;53.258;6.932;2023-04-03T10:07:33;103654.47;;;15.34;53.72
65659;BME280;60181;53.258;6.932;2023-04-03T10:11:30;103654.25;;;15.33;53.85
65659;BME280;60181;53.258;6.932;2023-04-03T10:15:36;103654.76;;;15.32;53.84
65659;BME280;60181;53.258;6.932;2023-04-03T10:19:43;103653.63;;;15.31;53.87
65659;BME280;60181;53.258;6.932;2023-04-03T10:23:44;103653.39;;;15.29;53.95
65659;BME280;60181;53.258;6.932;2023-04-03T10:27:59;103650.82;;;15.27;53.92
65659;BME280;60181;53.258;6.932;2023-04-03T10:39:59;103637.27;;;15.23;54.04
65659;BME280;60181;53.258;6.932;2023-04-03T10:44:10;103634.27;;;15.21;54.26
65659;BME280;60181;53.258;6.932;2023-04-03T10:52:15;103629.46;;;15.17;53.98
65659;BME280;60181;53.258;6.932;2023-04-03T11:00:22;103628.48;;;15.13;53.92
65659;BME280;60181;53.258;6.932;2023-04-03T11:04:22;103627.00;;;15.11;53.91
65659;BME280;60181;53.258;6.932;2023-04-03T11:08:28;103625.24;;;15.10;53.85
65659;BME280;60181;53.258;6.932;2023-04-03T11:12:38;103623.21;;;15.08;53.81
65659;BME280;60181;53.258;6.932;2023-04-03T11:16:36;103619.49;;;15.07;53.83
65659;BME280;60181;53.258;6.932;2023-04-03T11:20:38;103615.27;;;15.05;53.84
65659;BME280;60181;53.258;6.932;2023-04-03T11:24:43;103611.56;;;15.04;53.99
65659;BME280;60181;53.258;6.932;2023-04-03T11:28:46;103607.13;;;15.02;54.01
65659;BME280;60181;53.258;6.932;2023-04-03T11:36:55;103598.22;;;15.00;54.05
65659;BME280;60181;53.258;6.932;2023-04-03T11:40:58;103594.26;;;14.99;54.07
65659;BME280;60181;53.258;6.932;2023-04-03T11:49:08;103585.90;;;14.96;54.05
65659;BME280;60181;53.258;6.932;2023-04-03T11:57:22;103574.34;;;14.95;54.08
65659;BME280;60181;53.258;6.932;2023-04-03T12:05:26;103563.68;;;14.93;54.16
65659;BME280;60181;53.258;6.932;2023-04-03T12:09:33;103557.19;;;14.92;54.13
65659;BME280;60181;53.258;6.932;2023-04-03T12:13:30;103552.47;;;14.91;54.18
65659;BME280;60181;53.258;6.932;2023-04-03T12:17:34;103547.55;;;14.91;54.21
65659;BME280;60181;53.258;6.932;2023-04-03T12:25:47;103540.30;;;14.89;54.21
65659;BME280;60181;53.258;6.932;2023-04-03T12:42:03;103528.30;;;14.87;54.26
65659;BME280;60181;53.258;6.932;2023-04-03T12:50:22;103519.74;;;14.86;54.29
65659;BME280;60181;53.258;6.932;2023-04-03T12:54:15;103514.82;;;14.85;54.32
65659;BME280;60181;53.258;6.932;2023-04-03T12:58:15;103511.55;;;14.84;54.31
65659;BME280;60181;53.258;6.932;2023-04-03T13:02:22;103508.24;;;14.84;54.29
65659;BME280;60181;53.258;6.932;2023-04-03T13:06:23;103504.31;;;14.83;54.27
65659;BME280;60181;53.258;6.932;2023-04-03T13:10:26;103500.50;;;14.83;54.31
65659;BME280;60181;53.258;6.932;2023-04-03T13:14:30;103496.00;;;14.82;54.22
65659;BME280;60181;53.258;6.932;2023-04-03T13:18:35;103491.28;;;14.81;54.25
65659;BME280;60181;53.258;6.932;2023-04-03T13:22:48;103487.67;;;14.80;54.25
65659;BME280;60181;53.258;6.932;2023-04-03T13:26:42;103484.20;;;14.80;54.21
65659;BME280;60181;53.258;6.932;2023-04-03T13:34:50;103478.53;;;14.79;54.24
65659;BME280;60181;53.258;6.932;2023-04-03T13:43:05;103473.36;;;14.78;54.22
65659;BME280;60181;53.258;6.932;2023-04-03T13:47:16;103471.17;;;14.77;54.19
65659;BME280;60181;53.258;6.932;2023-04-03T13:55:26;103465.67;;;14.76;54.26
65659;BME280;60181;53.258;6.932;2023-04-03T14:03:31;103458.09;;;14.75;54.30
65659;BME280;60181;53.258;6.932;2023-04-03T14:07:22;103454.17;;;14.74;54.35
65659;BME280;60181;53.258;6.932;2023-04-03T14:11:28;103450.85;;;14.74;54.35
65659;BME280;60181;53.258;6.932;2023-04-03T14:15:30;103448.21;;;14.73;54.32
65659;BME280;60181;53.258;6.932;2023-04-03T14:19:34;103444.19;;;14.72;54.33
65659;BME280;60181;53.258;6.932;2023-04-03T14:23:38;103440.75;;;14.71;54.33
65659;BME280;60181;53.258;6.932;2023-04-03T14:27:44;103437.07;;;14.71;54.23
65659;BME280;60181;53.258;6.932;2023-04-03T14:31:47;103433.94;;;14.70;54.24
65659;BME280;60181;53.258;6.932;2023-04-03T14:35:50;103430.00;;;14.70;54.25
65659;BME280;60181;53.258;6.932;2023-04-03T14:39:54;103426.35;;;14.69;54.23
65659;BME280;60181;53.258;6.932;2023-04-03T14:43:58;103424.50;;;14.69;54.23
65659;BME280;60181;53.258;6.932;2023-04-03T14:48:02;103421.77;;;14.68;54.28
65659;BME280;60181;53.258;6.932;2023-04-03T14:52:06;103419.78;;;14.67;54.21
65659;BME280;60181;53.258;6.932;2023-04-03T14:56:11;103415.03;;;14.66;54.11
65659;BME280;60181;53.258;6.932;2023-04-03T15:00:15;103411.56;;;14.66;53.92
65659;BME280;60181;53.258;6.932;2023-04-03T15:04:19;103407.96;;;14.65;53.87
65659;BME280;60181;53.258;6.932;2023-04-03T15:08:23;103404.98;;;14.64;53.86
65659;BME280;60181;53.258;6.932;2023-04-03T15:12:26;103402.62;;;14.64;53.81
65659;BME280;60181;53.258;6.932;2023-04-03T15:16:30;103400.29;;;14.63;53.80
65659;BME280;60181;53.258;6.932;2023-04-03T15:20:34;103397.78;;;14.63;53.77
65659;BME280;60181;53.258;6.932;2023-04-03T15:24:38;103395.20;;;14.62;53.69
65659;BME280;60181;53.258;6.932;2023-04-03T15:28:42;103392.69;;;14.62;53.70
65659;BME280;60181;53.258;6.932;2023-04-03T15:32:46;103389.70;;;14.61;53.68
65659;BME280;60181;53.258;6.932;2023-04-03T15:36:50;103387.18;;;14.61;53.66
65659;BME280;60181;53.258;6.932;2023-04-03T15:40:54;103384.69;;;14.60;53.61
65659;BME280;60181;53.258;6.932;2023-04-03T15:44:58;103382.85;;;14.59;53.50
65659;BME280;60181;53.258;6.932;2023-04-03T15:49:02;103381.51;;;14.59;53.51
65659;BME280;60181;53.258;6.932;2023-04-03T15:53:06;103381.47;;;14.58;53.50
65659;BME280;60181;53.258;6.932;2023-04-03T15:57:10;103379.47;;;14.58;53.54
65659;BME280;60181;53.258;6.932;2023-04-03T16:01:14;103377.36;;;14.57;53.59
65659;BME280;60181;53.258;6.932;2023-04-03T16:05:18;103376.68;;;14.57;53.45
65659;BME280;60181;53.258;6.932;2023-04-03T16:09:22;103375.82;;;14.56;53.47
65659;BME280;60181;53.258;6.932;2023-04-03T16:13:26;103374.07;;;14.55;53.49
65659;BME280;60181;53.258;6.932;2023-04-03T16:17:31;103374.35;;;14.55;53.43
65659;BME280;60181;53.258;6.932;2023-04-03T16:21:34;103373.23;;;14.54;53.37
65659;BME280;60181;53.258;6.932;2023-04-03T16:25:38;103371.81;;;14.53;53.34
65659;BME280;60181;53.258;6.932;2023-04-03T16:29:42;103371.11;;;14.53;53.39
65659;BME280;60181;53.258;6.932;2023-04-03T16:33:46;103370.02;;;14.52;53.40
65659;BME280;60181;53.258;6.932;2023-04-03T16:37:50;103369.38;;;14.51;53.40
65659;BME280;60181;53.258;6.932;2023-04-03T16:41:54;103368.69;;;14.51;53.40
65659;BME280;60181;53.258;6.932;2023-04-03T16:45:58;103368.91;;;14.50;53.38
65659;BME280;60181;53.258;6.932;2023-04-03T16:54:06;103368.98;;;14.48;53.41
65659;BME280;60181;53.258;6.932;2023-04-03T16:58:10;103369.37;;;14.48;53.47
65659;BME280;60181;53.258;6.932;2023-04-03T17:02:14;103370.72;;;14.47;53.42
65659;BME280;60181;53.258;6.932;2023-04-03T17:06:18;103371.50;;;14.46;53.44
65659;BME280;60181;53.258;6.932;2023-04-03T17:10:22;103373.34;;;14.45;53.49
65659;BME280;60181;53.258;6.932;2023-04-03T17:14:26;103374.77;;;14.44;53.41
65659;BME280;60181;53.258;6.932;2023-04-03T17:18:30;103375.49;;;14.43;53.46
65659;BME280;60181;53.258;6.932;2023-04-03T17:22:34;103376.59;;;14.42;53.46
65659;BME280;60181;53.258;6.932;2023-04-03T17:26:39;103375.88;;;14.41;53.42
65659;BME280;60181;53.258;6.932;2023-04-03T17:30:42;103377.31;;;14.41;53.55
65659;BME280;60181;53.258;6.932;2023-04-03T17:34:46;103377.91;;;14.40;53.42
65659;BME280;60181;53.258;6.932;2023-04-03T17:38:50;103378.52;;;14.39;53.55
65659;BME280;60181;53.258;6.932;2023-04-03T17:42:54;103378.66;;;14.38;53.53
65659;BME280;60181;53.258;6.932;2023-04-03T17:46:58;103379.09;;;14.36;53.58
65659;BME280;60181;53.258;6.932;2023-04-03T17:51:05;103378.33;;;14.35;53.53
65659;BME280;60181;53.258;6.932;2023-04-03T17:55:06;103378.75;;;14.33;53.65
65659;BME280;60181;53.258;6.932;2023-04-03T17:59:10;103379.39;;;14.32;53.78
65659;BME280;60181;53.258;6.932;2023-04-03T18:03:14;103379.93;;;14.29;53.80
65659;BME280;60181;53.258;6.932;2023-04-03T18:07:18;103380.81;;;14.27;53.82
65659;BME280;60181;53.258;6.932;2023-04-03T18:11:22;103382.06;;;14.26;53.92
65659;BME280;60181;53.258;6.932;2023-04-03T18:15:26;103382.43;;;14.24;53.90
65659;BME280;60181;53.258;6.932;2023-04-03T18:19:30;103383.02;;;14.22;53.91
65659;BME280;60181;53.258;6.932;2023-04-03T18:23:34;103383.33;;;14.20;54.08
65659;BME280;60181;53.258;6.932;2023-04-03T18:27:38;103384.83;;;14.19;54.05
65659;BME280;60181;53.258;6.932;2023-04-03T18:31:43;103384.80;;;14.17;54.12
65659;BME280;60181;53.258;6.932;2023-04-03T18:35:46;103384.66;;;14.16;54.13
65659;BME280;60181;53.258;6.932;2023-04-03T18:39:50;103385.25;;;14.15;54.13
65659;BME280;60181;53.258;6.932;2023-04-03T18:43:54;103385.84;;;14.13;54.08
65659;BME280;60181;53.258;6.932;2023-04-03T18:47:58;103387.27;;;14.12;54.17
65659;BME280;60181;53.258;6.932;2023-04-03T18:52:02;103388.45;;;14.12;54.19
65659;BME280;60181;53.258;6.932;2023-04-03T18:56:06;103389.88;;;14.11;54.20
65659;BME280;60181;53.258;6.932;2023-04-03T19:00:10;103390.77;;;14.10;54.14
65659;BME280;60181;53.258;6.932;2023-04-03T19:04:14;103391.96;;;14.09;54.25
65659;BME280;60181;53.258;6.932;2023-04-03T19:08:17;103392.59;;;14.09;54.23
65659;BME280;60181;53.258;6.932;2023-04-03T19:12:22;103394.27;;;14.08;54.21
65659;BME280;60181;53.258;6.932;2023-04-03T19:16:25;103395.21;;;14.07;54.22
65659;BME280;60181;53.258;6.932;2023-04-03T19:20:29;103396.36;;;14.07;54.23
65659;BME280;60181;53.258;6.932;2023-04-03T19:24:34;103397.05;;;14.06;54.30
65659;BME280;60181;53.258;6.932;2023-04-03T19:28:38;103397.77;;;14.05;54.22
65659;BME280;60181;53.258;6.932;2023-04-03T19:32:41;103399.28;;;14.04;54.25
65659;BME280;60181;53.258;6.932;2023-04-03T19:36:45;103400.56;;;14.04;54.27
65659;BME280;60181;53.258;6.932;2023-04-03T19:40:49;103400.66;;;14.03;54.27
65659;BME280;60181;53.258;6.932;2023-04-03T19:44:53;103400.89;;;14.02;54.29
65659;BME280;60181;53.258;6.932;2023-04-03T19:48:57;103399.44;;;14.01;54.30
65659;BME280;60181;53.258;6.932;2023-04-03T19:53:01;103397.00;;;14.01;54.40
65659;BME280;60181;53.258;6.932;2023-04-03T19:57:05;103392.70;;;14.00;54.33
65659;BME280;60181;53.258;6.932;2023-04-03T20:01:09;103389.27;;;13.99;54.29
65659;BME280;60181;53.258;6.932;2023-04-03T20:05:13;103385.13;;;13.99;54.39
65659;BME280;60181;53.258;6.932;2023-04-03T20:09:17;103380.64;;;13.98;54.38
65659;BME280;60181;53.258;6.932;2023-04-03T20:13:21;103378.39;;;13.97;54.36
65659;BME280;60181;53.258;6.932;2023-04-03T20:17:25;103378.67;;;13.97;54.34
65659;BME280;60181;53.258;6.932;2023-04-03T20:21:30;103379.65;;;13.96;54.40
65659;BME280;60181;53.258;6.932;2023-04-03T20:25:33;103380.64;;;13.96;54.34
65659;BME280;60181;53.258;6.932;2023-04-03T20:29:37;103378.94;;;13.95;54.50
65659;BME280;60181;53.258;6.932;2023-04-03T20:33:41;103376.23;;;13.94;54.49
65659;BME280;60181;53.258;6.932;2023-04-03T20:37:45;103373.84;;;13.94;54.43
65659;BME280;60181;53.258;6.932;2023-04-03T20:41:49;103369.75;;;13.93;54.41
65659;BME280;60181;53.258;6.932;2023-04-03T20:45:53;103366.20;;;13.93;54.36
65659;BME280;60181;53.258;6.932;2023-04-03T20:49:57;103361.54;;;13.92;54.50
65659;BME280;60181;53.258;6.932;2023-04-03T20:54:01;103356.04;;;13.92;54.38
65659;BME280;60181;53.258;6.932;2023-04-03T20:58:05;103351.67;;;13.91;54.40
65659;BME280;60181;53.258;6.932;2023-04-03T21:02:09;103347.38;;;13.91;54.40
65659;BME280;60181;53.258;6.932;2023-04-03T21:22:30;103337.08;;;13.88;54.59
65659;BME280;60181;53.258;6.932;2023-04-03T21:26:34;103336.40;;;13.87;54.63
65659;BME280;60181;53.258;6.932;2023-04-03T21:30:38;103334.78;;;13.87;54.58
65659;BME280;60181;53.258;6.932;2023-04-03T21:34:41;103332.71;;;13.86;54.61
65659;BME280;60181;53.258;6.932;2023-04-03T21:38:45;103330.93;;;13.86;54.58
65659;BME280;60181;53.258;6.932;2023-04-03T21:42:53;103329.53;;;13.85;54.49
65659;BME280;60181;53.258;6.932;2023-04-03T21:46:53;103328.41;;;13.85;54.66
65659;BME280;60181;53.258;6.932;2023-04-03T21:51:00;103329.80;;;13.84;54.67
65659;BME280;60181;53.258;6.932;2023-04-03T21:55:01;103330.58;;;13.84;54.64
65659;BME280;60181;53.258;6.932;2023-04-03T21:59:05;103330.81;;;13.83;54.54
65659;BME280;60181;53.258;6.932;2023-04-03T22:03:09;103330.97;;;13.83;54.66
65659;BME280;60181;53.258;6.932;2023-04-03T22:07:13;103331.35;;;13.83;54.63
65659;BME280;60181;53.258;6.932;2023-04-03T22:11:17;103331.82;;;13.82;54.65
65659;BME280;60181;53.258;6.932;2023-04-03T22:15:21;103332.43;;;13.82;54.66
65659;BME280;60181;53.258;6.932;2023-04-03T22:19:25;103332.67;;;13.81;54.77
65659;BME280;60181;53.258;6.932;2023-04-03T22:23:29;103333.28;;;13.80;54.77
65659;BME280;60181;53.258;6.932;2023-04-03T22:27:33;103334.02;;;13.80;54.81
65659;BME280;60181;53.258;6.932;2023-04-03T22:31:37;103333.30;;;13.79;54.66
65659;BME280;60181;53.258;6.932;2023-04-03T22:35:47;103333.28;;;13.79;54.68
65659;BME280;60181;53.258;6.932;2023-04-03T22:39:45;103332.91;;;13.78;54.84
65659;BME280;60181;53.258;6.932;2023-04-03T22:43:49;103331.32;;;13.78;54.68
65659;BME280;60181;53.258;6.932;2023-04-03T22:47:53;103328.66;;;13.77;54.76
65659;BME280;60181;53.258;6.932;2023-04-03T22:51:57;103327.40;;;13.77;54.70
65659;BME280;60181;53.258;6.932;2023-04-03T22:56:02;103325.66;;;13.76;54.77